createdAt,value
2023-04-22T00:01:11.375Z,72.43
2023-04-22T00:03:51.208Z,72.32
2023-04-22T00:06:20.222Z,73.07
2023-04-22T00:08:48.580Z,73.20
2023-04-22T00:11:22.271Z,73.22
2023-04-22T00:13:53.948Z,73.39
2023-04-22T00:16:23.069Z,73.74
2023-04-22T00:18:59.827Z,74.02
2023-04-22T00:21:38.657Z,74.05
2023-04-22T00:24:07.185Z,74.10
2023-04-22T00:26:35.257Z,73.97
2023-04-22T00:29:03.034Z,74.05
2023-04-22T00:31:30.821Z,74.34
2023-04-22T00:34:00.437Z,74.75
2023-04-22T00:36:28.696Z,75.01
2023-04-22T00:38:56.385Z,75.07
2023-04-22T00:41:24.845Z,75.00
2023-04-22T00:43:53.527Z,74.92
2023-04-22T00:46:21.616Z,75.07
2023-04-22T00:48:50.320Z,74.73
2023-04-22T00:51:19.550Z,74.94
2023-04-22T00:53:47.371Z,75.15
2023-04-22T00:56:15.304Z,75.97
2023-04-22T00:58:43.105Z,76.20
2023-04-22T01:01:11.015Z,76.09
2023-04-22T01:03:41.769Z,76.00
2023-04-22T01:06:09.681Z,76.12
2023-04-22T01:08:38.656Z,75.78
2023-04-22T01:11:06.512Z,76.31
2023-04-22T01:13:35.882Z,76.40
2023-04-22T01:16:03.820Z,76.35
2023-04-22T01:18:32.448Z,76.41
2023-04-22T01:21:00.055Z,76.84
2023-04-22T01:23:32.347Z,77.08
2023-04-22T01:26:00.617Z,77.29
2023-04-22T01:28:28.760Z,77.50
2023-04-22T01:30:57.047Z,77.70
2023-04-22T01:33:25.319Z,77.48
2023-04-22T01:35:53.048Z,77.14
2023-04-22T01:38:20.808Z,77.34
2023-04-22T01:40:50.292Z,77.42
2023-04-22T01:43:17.986Z,77.29
2023-04-22T01:45:45.998Z,77.86
2023-04-22T01:48:13.702Z,78.07
2023-04-22T01:50:42.322Z,78.23
2023-04-22T01:53:13.957Z,78.43
2023-04-22T01:55:43.122Z,78.75
2023-04-22T01:58:15.564Z,78.89
2023-04-22T02:00:43.846Z,79.90
2023-04-22T02:03:11.731Z,80.25
2023-04-22T02:05:39.476Z,80.13
2023-04-22T02:08:07.505Z,80.16
2023-04-22T02:10:35.262Z,80.21
2023-04-22T02:13:03.041Z,80.30
2023-04-22T02:15:32.141Z,80.40
2023-04-22T02:18:00.017Z,80.85
2023-04-22T02:20:28.002Z,81.00
2023-04-22T02:22:55.787Z,80.86
2023-04-22T02:25:23.833Z,81.07
2023-04-22T02:27:51.571Z,81.61
2023-04-22T02:30:19.600Z,81.64
2023-04-22T02:32:49.428Z,81.97
2023-04-22T02:35:17.208Z,81.94
2023-04-22T02:37:44.890Z,81.91
2023-04-22T02:40:13.285Z,82.04
2023-04-22T02:42:41.163Z,82.29
2023-04-22T02:45:09.691Z,82.51
2023-04-22T02:47:37.458Z,82.66
2023-04-22T02:50:08.446Z,82.79
2023-04-22T02:52:36.517Z,83.17
2023-04-22T02:55:04.327Z,83.22
2023-04-22T02:57:32.386Z,83.05
2023-04-22T03:00:00.066Z,83.24
2023-04-22T03:02:28.217Z,83.16
2023-04-22T03:05:14.461Z,83.30
2023-04-22T03:07:42.144Z,84.04
2023-04-22T03:10:10.611Z,84.11
2023-04-22T03:12:38.290Z,84.46
2023-04-22T03:15:07.011Z,84.58
2023-04-22T03:17:36.012Z,85.02
2023-04-22T03:20:09.202Z,85.05
2023-04-22T03:22:38.470Z,85.45
2023-04-22T03:25:09.076Z,85.78
2023-04-22T03:27:37.431Z,85.61
2023-04-22T03:30:05.940Z,85.73
2023-04-22T03:32:33.675Z,85.82
2023-04-22T03:35:18.383Z,86.35
2023-04-22T03:37:50.046Z,86.76
2023-04-22T03:40:22.413Z,87.02
2023-04-22T03:42:50.508Z,87.01
2023-04-22T03:45:20.653Z,87.32
2023-04-22T03:47:56.276Z,87.18
2023-04-22T03:50:31.550Z,87.28
2023-04-22T03:53:02.656Z,87.72
2023-04-22T03:55:30.523Z,87.29
2023-04-22T03:57:58.293Z,87.63
2023-04-22T04:00:26.620Z,88.24
2023-04-22T04:03:07.033Z,88.19
2023-04-22T04:05:35.915Z,88.36
2023-04-22T04:08:05.544Z,88.61
2023-04-22T04:10:33.445Z,88.35
2023-04-22T04:13:04.103Z,88.39
2023-04-22T04:15:41.098Z,88.55
2023-04-22T04:18:11.649Z,88.60
2023-04-22T04:20:39.514Z,88.90
2023-04-22T04:23:08.909Z,88.84
2023-04-22T04:25:41.911Z,89.05
2023-04-22T04:28:13.922Z,89.14
2023-04-22T04:30:42.333Z,89.35
2023-04-22T04:33:12.425Z,89.40
2023-04-22T04:35:43.427Z,89.62
2023-04-22T04:38:14.452Z,90.18
2023-04-22T04:40:45.332Z,90.25
2023-04-22T04:43:17.707Z,90.29
2023-04-22T04:45:57.157Z,90.87
2023-04-22T04:48:36.887Z,91.28
2023-04-22T04:51:08.351Z,91.55
2023-04-22T04:53:43.486Z,91.81
2023-04-22T04:56:12.223Z,91.94
2023-04-22T04:58:40.376Z,92.09
2023-04-22T05:01:16.277Z,92.18
2023-04-22T05:03:52.340Z,92.30
2023-04-22T05:06:21.799Z,92.52
2023-04-22T05:08:58.724Z,92.98
2023-04-22T05:11:37.743Z,92.92
2023-04-22T05:14:13.157Z,92.80
2023-04-22T05:16:49.608Z,93.19
2023-04-22T05:19:24.385Z,93.46
2023-04-22T05:21:56.907Z,93.28
2023-04-22T05:24:30.183Z,93.10
2023-04-22T05:27:04.667Z,93.41
2023-04-22T05:29:39.697Z,92.98
2023-04-22T05:32:09.731Z,93.05
2023-04-22T05:34:40.164Z,93.10
2023-04-22T05:37:08.325Z,93.11
2023-04-22T05:39:39.891Z,93.09
2023-04-22T05:42:10.315Z,92.78
2023-04-22T05:44:39.002Z,92.39
2023-04-22T05:47:07.549Z,92.11
2023-04-22T05:49:38.834Z,91.77
2023-04-22T05:52:32.441Z,91.09
2023-04-22T05:55:10.269Z,90.38
2023-04-22T05:57:39.050Z,90.29
2023-04-22T06:00:15.031Z,89.29
2023-04-22T06:02:45.315Z,89.21
2023-04-22T06:05:13.555Z,89.03
2023-04-22T06:07:41.835Z,88.77
2023-04-22T06:10:12.256Z,88.45
2023-04-22T06:12:39.981Z,88.61
2023-04-22T06:15:08.642Z,88.38
2023-04-22T06:17:37.566Z,88.04
2023-04-22T06:20:06.635Z,88.21
2023-04-22T06:22:34.555Z,87.96
2023-04-22T06:25:02.881Z,87.69
2023-04-22T06:27:31.946Z,87.10
2023-04-22T06:29:59.800Z,86.49
2023-04-22T06:32:27.447Z,86.69
2023-04-22T06:34:55.095Z,86.95
2023-04-22T06:37:23.361Z,86.70
2023-04-22T06:39:51.182Z,86.67
2023-04-22T06:42:38.769Z,85.87
2023-04-22T06:45:38.638Z,84.85
2023-04-22T06:48:45.758Z,84.65
2023-04-22T06:51:24.633Z,84.11
2023-04-22T06:53:52.418Z,83.53
2023-04-22T06:56:20.226Z,83.23
2023-04-22T06:58:49.487Z,84.04
2023-04-22T07:01:18.060Z,82.54
2023-04-22T07:03:48.388Z,81.22
2023-04-22T07:06:16.419Z,80.40
2023-04-22T07:08:44.305Z,80.48
2023-04-22T07:11:14.259Z,81.44
2023-04-22T07:14:06.540Z,81.57
2023-04-22T07:16:34.559Z,81.53
2023-04-22T07:19:02.311Z,80.76
2023-04-22T07:21:30.042Z,81.29
2023-04-22T07:23:57.632Z,80.90
2023-04-22T07:26:25.737Z,80.71
2023-04-22T07:28:53.379Z,79.72
2023-04-22T07:31:22.420Z,78.26
2023-04-22T07:33:50.338Z,78.30
2023-04-22T07:36:18.189Z,78.93
2023-04-22T07:38:45.961Z,78.29
2023-04-22T07:41:13.978Z,78.19
2023-04-22T07:43:41.631Z,78.84
2023-04-22T07:46:09.401Z,77.06
2023-04-22T07:48:38.580Z,76.98
2023-04-22T07:51:06.615Z,75.96
2023-04-22T07:53:34.381Z,75.69
2023-04-22T07:56:02.883Z,75.37
2023-04-22T07:58:30.514Z,74.84
2023-04-22T08:00:58.329Z,75.02
2023-04-22T08:03:26.590Z,74.11
2023-04-22T08:05:58.175Z,72.32
2023-04-22T08:08:26.666Z,73.19
2023-04-22T08:10:54.401Z,71.73
2023-04-22T08:13:26.147Z,72.71
2023-04-22T08:15:54.033Z,70.89
2023-04-22T08:18:21.809Z,70.91
2023-04-22T08:20:51.313Z,71.18
2023-04-22T08:23:20.305Z,69.25
2023-04-22T08:25:48.185Z,69.29
2023-04-22T08:28:16.197Z,66.15
2023-04-22T08:30:43.858Z,65.17
2023-04-22T08:33:12.120Z,64.28
2023-04-22T08:35:39.882Z,63.58
2023-04-22T08:38:07.556Z,62.71
2023-04-22T08:40:36.732Z,60.64
2023-04-22T08:43:05.161Z,62.16
2023-04-22T08:45:33.685Z,61.36
2023-04-22T08:48:01.772Z,60.33
2023-04-22T08:50:30.060Z,58.71
2023-04-22T08:55:33.299Z,58.33
2023-04-22T08:58:03.898Z,59.14
2023-04-22T09:00:34.456Z,58.63
2023-04-22T09:03:03.893Z,58.96
2023-04-22T09:05:35.084Z,59.76
2023-04-22T09:08:04.245Z,58.71
2023-04-22T09:10:34.350Z,59.35
2023-04-22T09:13:04.426Z,58.34
2023-04-22T09:15:32.254Z,57.88
2023-04-22T09:18:00.046Z,58.39
2023-04-22T09:20:28.702Z,58.31
2023-04-22T09:22:57.989Z,57.97
2023-04-22T09:25:27.605Z,58.75
2023-04-22T09:27:58.641Z,56.78
2023-04-22T09:30:28.348Z,54.79
2023-04-22T09:32:57.854Z,56.54
2023-04-22T09:35:28.393Z,55.84
2023-04-22T09:37:56.143Z,56.14
2023-04-22T09:40:27.006Z,53.09
2023-04-22T09:42:58.446Z,53.27
2023-04-22T09:45:28.370Z,52.56
2023-04-22T09:47:57.628Z,51.61
2023-04-22T09:50:27.024Z,52.39
2023-04-22T09:52:57.768Z,51.04
2023-04-22T09:55:27.893Z,50.70
2023-04-22T09:57:59.033Z,51.98
2023-04-22T10:00:30.180Z,51.79
2023-04-22T10:02:58.148Z,52.37
2023-04-22T10:05:27.133Z,49.81
2023-04-22T10:07:54.943Z,50.36
2023-04-22T10:10:23.467Z,51.58
2023-04-22T10:12:52.356Z,50.11
2023-04-22T10:15:21.823Z,50.62
2023-04-22T10:17:53.295Z,49.45
2023-04-22T10:20:22.494Z,49.96
2023-04-22T10:22:54.277Z,50.80
2023-04-22T10:25:26.127Z,49.73
2023-04-22T10:27:55.782Z,48.62
2023-04-22T10:30:34.269Z,49.74
2023-04-22T10:33:37.049Z,48.59
2023-04-22T10:36:10.135Z,48.20
2023-04-22T10:38:38.587Z,47.67
2023-04-22T10:41:06.451Z,48.04
2023-04-22T10:43:45.281Z,48.50
2023-04-22T10:46:49.421Z,47.24
2023-04-22T10:49:21.794Z,45.66
2023-04-22T10:51:51.092Z,46.04
2023-04-22T10:54:57.620Z,45.82
2023-04-22T10:57:36.259Z,45.56
2023-04-22T11:00:35.397Z,45.65
2023-04-22T11:03:15.347Z,46.15
2023-04-22T11:05:45.396Z,43.38
2023-04-22T11:08:21.636Z,44.15
2023-04-22T11:10:50.862Z,42.98
2023-04-22T11:13:21.101Z,42.26
2023-04-22T11:15:50.583Z,42.32
2023-04-22T11:18:21.272Z,43.99
2023-04-22T11:20:51.447Z,42.65
2023-04-22T11:23:22.486Z,43.06
2023-04-22T11:25:55.962Z,41.13
2023-04-22T11:28:23.943Z,41.00
2023-04-22T11:30:52.477Z,42.45
2023-04-22T11:33:20.932Z,41.70
2023-04-22T11:35:51.647Z,43.69
2023-04-22T11:38:19.604Z,42.27
2023-04-22T11:40:47.933Z,42.22
2023-04-22T11:43:16.369Z,42.49
2023-04-22T11:45:44.343Z,42.77
2023-04-22T11:48:12.532Z,41.74
2023-04-22T11:50:44.232Z,40.75
2023-04-22T11:53:18.005Z,41.48
2023-04-22T11:55:47.467Z,41.98
2023-04-22T11:58:18.016Z,41.55
2023-04-22T12:00:48.214Z,38.10
2023-04-22T12:03:17.290Z,41.52
2023-04-22T12:05:46.764Z,39.07
2023-04-22T12:08:18.470Z,39.67
2023-04-22T12:10:48.169Z,39.35
2023-04-22T12:13:20.866Z,39.02
2023-04-22T12:15:49.181Z,39.01
2023-04-22T12:18:16.941Z,38.52
2023-04-22T12:20:44.800Z,39.10
2023-04-22T12:23:17.381Z,37.02
2023-04-22T12:25:45.319Z,38.33
2023-04-22T12:28:14.338Z,37.10
2023-04-22T12:30:42.463Z,36.32
2023-04-22T12:33:10.972Z,36.81
2023-04-22T12:35:39.038Z,35.00
2023-04-22T12:38:06.821Z,36.52
2023-04-22T12:40:36.172Z,35.93
2023-04-22T12:43:06.195Z,35.39
2023-04-22T12:45:34.050Z,35.18
2023-04-22T12:48:02.006Z,35.70
2023-04-22T12:50:29.742Z,35.22
2023-04-22T12:52:57.523Z,35.83
2023-04-22T12:55:26.076Z,35.03
2023-04-22T12:57:55.507Z,35.48
2023-04-22T13:00:23.416Z,35.98
2023-04-22T13:02:51.434Z,34.84
2023-04-22T13:05:20.355Z,36.52
2023-04-22T13:07:56.387Z,35.26
2023-04-22T13:10:34.484Z,35.49
2023-04-22T13:15:35.492Z,34.59
2023-04-22T13:18:03.361Z,34.74
2023-04-22T13:20:31.252Z,34.14
2023-04-22T13:22:59.003Z,34.72
2023-04-22T13:25:27.105Z,35.61
2023-04-22T13:27:54.873Z,34.54
2023-04-22T13:30:24.005Z,34.24
2023-04-22T13:32:52.083Z,34.44
2023-04-22T13:35:20.063Z,33.36
2023-04-22T13:37:47.878Z,33.34
2023-04-22T13:40:15.618Z,33.79
2023-04-22T13:42:44.439Z,33.81
2023-04-22T13:45:12.557Z,33.69
2023-04-22T13:47:41.730Z,33.63
2023-04-22T13:50:10.762Z,33.49
2023-04-22T13:52:38.819Z,33.58
2023-04-22T13:55:07.450Z,33.48
2023-04-22T13:57:35.257Z,33.73
2023-04-22T14:00:03.960Z,34.24
2023-04-22T14:02:40.945Z,32.74
2023-04-22T14:05:10.596Z,33.54
2023-04-22T14:07:38.517Z,33.15
2023-04-22T14:10:08.437Z,34.31
2023-04-22T14:12:36.224Z,34.05
2023-04-22T14:15:04.161Z,35.05
2023-04-22T14:17:31.939Z,33.89
2023-04-22T14:20:01.080Z,34.62
2023-04-22T14:22:28.804Z,35.31
2023-04-22T14:24:56.551Z,35.09
2023-04-22T14:27:24.382Z,34.60
2023-04-22T14:29:52.491Z,35.15
2023-04-22T14:32:20.418Z,34.74
2023-04-22T14:34:48.170Z,35.03
2023-04-22T14:37:17.260Z,34.87
2023-04-22T14:39:44.951Z,35.54
2023-04-22T14:42:12.763Z,35.01
2023-04-22T14:44:40.665Z,36.18
2023-04-22T14:47:08.411Z,36.39
2023-04-22T14:49:36.229Z,35.79
2023-04-22T14:52:04.056Z,36.50
2023-04-22T14:54:33.451Z,35.99
2023-04-22T14:57:01.720Z,36.96
2023-04-22T14:59:29.564Z,36.76
2023-04-22T15:01:57.883Z,37.24
2023-04-22T15:04:26.643Z,38.38
2023-04-22T15:06:57.737Z,38.35
2023-04-22T15:09:25.571Z,39.40
2023-04-22T15:11:56.513Z,39.19
2023-04-22T15:14:24.380Z,38.55
2023-04-22T15:16:52.230Z,38.94
2023-04-22T15:19:19.965Z,39.98
2023-04-22T15:21:47.937Z,40.05
2023-04-22T15:24:15.732Z,40.39
2023-04-22T15:26:43.622Z,40.47
2023-04-22T15:29:12.976Z,40.30
2023-04-22T15:31:40.778Z,40.92
2023-04-22T15:34:08.848Z,40.92
2023-04-22T15:36:36.680Z,42.11
2023-04-22T15:39:05.486Z,42.54
2023-04-22T15:41:34.072Z,42.57
2023-04-22T15:44:02.422Z,41.93
2023-04-22T15:46:33.375Z,42.12
2023-04-22T15:49:02.035Z,42.44
2023-04-22T15:51:31.000Z,42.44
2023-04-22T15:53:59.625Z,41.83
2023-04-22T15:56:29.484Z,43.01
2023-04-22T15:58:57.203Z,43.19
2023-04-22T16:01:25.068Z,42.90
2023-04-22T16:03:54.283Z,42.93
2023-04-22T16:06:22.112Z,42.42
2023-04-22T16:08:49.945Z,42.62
2023-04-22T16:11:17.880Z,43.01
2023-04-22T16:13:46.092Z,42.07
2023-04-22T16:16:14.078Z,42.04
2023-04-22T16:18:44.201Z,41.38
2023-04-22T16:21:13.664Z,41.86
2023-04-22T16:23:41.477Z,42.05
2023-04-22T16:26:09.357Z,41.57
2023-04-22T16:28:37.188Z,41.75
2023-04-22T16:31:05.124Z,42.37
2023-04-22T16:33:34.288Z,42.74
2023-04-22T16:36:02.105Z,42.33
2023-04-22T16:38:31.217Z,41.85
2023-04-22T16:40:58.991Z,42.26
2023-04-22T16:43:26.712Z,43.26
2023-04-22T16:45:54.453Z,43.41
2023-04-22T16:48:22.144Z,43.51
2023-04-22T16:50:51.260Z,44.45
2023-04-22T16:53:19.218Z,44.24
2023-04-22T16:55:48.357Z,44.13
2023-04-22T16:58:16.226Z,44.28
2023-04-22T17:00:45.279Z,44.50
2023-04-22T17:03:14.422Z,44.89
2023-04-22T17:05:42.357Z,45.47
2023-04-22T17:08:10.224Z,45.46
2023-04-22T17:10:41.511Z,45.61
2023-04-22T17:13:10.766Z,45.97
2023-04-22T17:15:38.745Z,46.49
2023-04-22T17:18:07.895Z,46.15
2023-04-22T17:20:36.068Z,46.36
2023-04-22T17:23:04.188Z,46.81
2023-04-22T17:25:32.338Z,47.32
2023-04-22T17:28:00.003Z,47.79
2023-04-22T17:30:29.180Z,47.97
2023-04-22T17:32:57.422Z,48.23
2023-04-22T17:35:25.464Z,48.15
2023-04-22T17:37:53.710Z,48.74
2023-04-22T17:40:21.929Z,48.70
2023-04-22T17:42:49.675Z,49.43
2023-04-22T17:45:17.538Z,49.54
2023-04-22T17:47:48.445Z,49.90
2023-04-22T17:50:16.428Z,49.94
2023-04-22T17:52:44.457Z,50.33
2023-04-22T17:55:12.208Z,50.38
2023-04-22T17:57:40.813Z,50.55
2023-04-22T18:00:10.252Z,50.86
2023-04-22T18:02:39.710Z,50.60
2023-04-22T18:05:09.790Z,50.96
2023-04-22T18:07:37.533Z,50.97
2023-04-22T18:10:06.280Z,50.87
2023-04-22T18:12:34.004Z,51.01
2023-04-22T18:15:01.982Z,50.98
2023-04-22T18:17:29.734Z,51.02
2023-04-22T18:20:06.331Z,50.91
2023-04-22T18:22:43.467Z,51.53
2023-04-22T18:25:11.457Z,51.79
2023-04-22T18:27:39.183Z,51.74
2023-04-22T18:30:07.955Z,51.96
2023-04-22T18:32:36.828Z,51.94
2023-04-22T18:35:05.726Z,52.69
2023-04-22T18:37:34.884Z,52.93
2023-04-22T18:40:06.105Z,53.07
2023-04-22T18:42:33.856Z,53.31
2023-04-22T18:45:04.635Z,53.74
2023-04-22T18:47:33.310Z,54.19
2023-04-22T18:50:01.342Z,54.19
2023-04-22T18:52:29.160Z,54.30
2023-04-22T18:54:57.145Z,54.46
2023-04-22T18:57:26.483Z,54.95
2023-04-22T18:59:54.983Z,55.28
2023-04-22T19:02:22.922Z,55.68
2023-04-22T19:04:50.999Z,56.11
2023-04-22T19:07:18.849Z,56.37
2023-04-22T19:09:46.740Z,56.62
2023-04-22T19:12:16.613Z,57.01
2023-04-22T19:14:47.147Z,57.37
2023-04-22T19:17:14.997Z,57.61
2023-04-22T19:19:43.210Z,57.90
2023-04-22T19:22:12.448Z,58.38
2023-04-22T19:24:40.241Z,58.83
2023-04-22T19:27:12.388Z,59.08
2023-04-22T19:29:40.745Z,59.16
2023-04-22T19:32:11.034Z,59.62
2023-04-22T19:34:39.221Z,59.84
2023-04-22T19:37:08.203Z,60.41
2023-04-22T19:39:36.350Z,60.45
2023-04-22T19:42:04.313Z,60.35
2023-04-22T19:44:32.252Z,60.64
2023-04-22T19:47:00.216Z,60.86
2023-04-22T19:49:31.183Z,61.07
2023-04-22T19:51:59.118Z,61.49
2023-04-22T19:54:28.908Z,61.56
2023-04-22T19:56:58.000Z,61.63
2023-04-22T19:59:28.041Z,61.71
2023-04-22T20:01:56.089Z,61.82
2023-04-22T20:04:24.482Z,61.98
2023-04-22T20:06:54.256Z,62.01
2023-04-22T20:09:22.632Z,62.29
2023-04-22T20:11:51.023Z,62.45
2023-04-22T20:14:19.681Z,62.68
2023-04-22T20:16:49.886Z,62.71
2023-04-22T20:19:19.128Z,62.71
2023-04-22T20:21:48.804Z,62.62
2023-04-22T20:24:20.089Z,62.46
2023-04-22T20:26:49.558Z,62.93
2023-04-22T20:29:18.857Z,63.58
2023-04-22T20:31:47.017Z,65.00
2023-04-22T20:34:14.973Z,65.18
2023-04-22T20:36:43.689Z,65.71
2023-04-22T20:39:14.236Z,66.22
2023-04-22T20:41:44.385Z,66.54
2023-04-22T20:44:12.168Z,66.84
2023-04-22T20:46:40.116Z,66.92
2023-04-22T20:49:08.357Z,66.52
2023-04-22T20:51:36.269Z,66.90
2023-04-22T20:54:06.165Z,66.97
2023-04-22T20:56:37.661Z,67.53
2023-04-22T20:59:06.998Z,67.53
2023-04-22T21:01:35.435Z,68.13
2023-04-22T21:04:04.531Z,68.31
2023-04-22T21:06:34.074Z,68.72
2023-04-22T21:09:03.094Z,68.99
2023-04-22T21:11:31.533Z,69.14
2023-04-22T21:13:59.997Z,69.33
2023-04-22T21:16:31.559Z,69.94
2023-04-22T21:19:00.770Z,70.34
2023-04-22T21:21:33.941Z,70.82
2023-04-22T21:24:02.591Z,71.33
2023-04-22T21:26:30.622Z,72.15
2023-04-22T21:28:59.293Z,72.72
2023-04-22T21:31:27.696Z,73.12
2023-04-22T21:33:57.183Z,74.06
2023-04-22T21:36:26.487Z,74.91
2023-04-22T21:38:54.940Z,75.19
2023-04-22T21:41:23.420Z,75.20
2023-04-22T21:43:51.218Z,75.81
2023-04-22T21:46:20.022Z,76.50
2023-04-22T21:48:47.771Z,77.23
2023-04-22T21:51:16.946Z,77.94
2023-04-22T21:53:45.298Z,78.38
2023-04-22T21:56:13.315Z,78.40
2023-04-22T21:58:41.253Z,78.44
2023-04-22T22:01:09.097Z,78.66
2023-04-22T22:03:38.030Z,78.74
2023-04-22T22:06:06.520Z,78.71
2023-04-22T22:08:35.590Z,78.94
2023-04-22T22:11:05.906Z,78.74
2023-04-22T22:13:34.124Z,78.71
2023-04-22T22:16:01.993Z,78.59
2023-04-22T22:18:29.873Z,78.71
2023-04-22T22:20:57.591Z,78.59
2023-04-22T22:23:25.973Z,78.40
2023-04-22T22:25:55.080Z,78.05
2023-04-22T22:28:22.824Z,77.99
2023-04-22T22:30:50.591Z,78.01
2023-04-22T22:33:18.599Z,78.33
2023-04-22T22:35:46.413Z,77.84
2023-04-22T22:38:14.262Z,77.95
2023-04-22T22:40:41.958Z,77.80
2023-04-22T22:43:11.071Z,77.78
2023-04-22T22:45:38.953Z,77.97
2023-04-22T22:48:07.056Z,78.03
2023-04-22T22:50:34.914Z,78.40
2023-04-22T22:53:02.697Z,78.69
2023-04-22T22:55:30.423Z,78.96
2023-04-22T22:57:58.225Z,79.44
2023-04-22T23:00:27.455Z,80.09
2023-04-22T23:02:55.713Z,81.00
2023-04-22T23:05:23.546Z,81.97
2023-04-22T23:07:51.399Z,82.58
2023-04-22T23:10:19.162Z,83.17
2023-04-22T23:12:46.900Z,84.56
2023-04-22T23:15:14.587Z,85.63
2023-04-22T23:17:43.693Z,86.60
2023-04-22T23:20:12.288Z,87.65
2023-04-22T23:22:40.796Z,88.17
2023-04-22T23:25:10.286Z,89.17
2023-04-22T23:27:38.557Z,90.26
2023-04-22T23:30:07.928Z,90.96
2023-04-22T23:32:36.928Z,91.29
2023-04-22T23:35:07.838Z,92.29
2023-04-22T23:37:38.090Z,93.10
2023-04-22T23:40:06.916Z,94.12
2023-04-22T23:42:34.702Z,94.41
2023-04-22T23:45:02.704Z,95.21
2023-04-22T23:47:31.351Z,95.95
2023-04-22T23:49:59.276Z,96.57
2023-04-22T23:52:28.488Z,96.62
2023-04-22T23:54:57.934Z,96.79
2023-04-22T23:57:26.115Z,97.14
2023-04-22T23:59:54.488Z,97.28
